createdAt,value
2023-01-31T00:01:51.369Z,23.38
2023-01-31T00:04:19.008Z,25.30
2023-01-31T00:06:50.705Z,22.35
2023-01-31T00:09:18.961Z,23.60
2023-01-31T00:11:46.567Z,24.75
2023-01-31T00:14:19.603Z,23.92
2023-01-31T00:16:47.895Z,23.55
2023-01-31T00:19:15.559Z,24.70
2023-01-31T00:21:44.667Z,29.55
2023-01-31T00:24:13.777Z,35.13
2023-01-31T00:26:41.556Z,27.32
2023-01-31T00:29:09.830Z,26.15
2023-01-31T00:31:37.924Z,31.12
2023-01-31T00:34:08.157Z,34.03
2023-01-31T00:36:35.987Z,27.45
2023-01-31T00:39:07.142Z,27.73
2023-01-31T00:41:37.882Z,29.15
2023-01-31T00:44:06.766Z,31.52
2023-01-31T00:46:35.857Z,28.70
2023-01-31T00:49:04.636Z,26.70
2023-01-31T00:51:32.161Z,29.10
2023-01-31T00:53:59.916Z,28.30
2023-01-31T00:56:27.333Z,27.35
2023-01-31T00:58:55.203Z,26.35
2023-01-31T01:01:26.610Z,26.45
2023-01-31T01:03:56.528Z,26.20
2023-01-31T01:06:24.559Z,23.57
2023-01-31T01:08:52.472Z,29.75
2023-01-31T01:11:27.377Z,25.45
2023-01-31T01:13:56.464Z,25.27
2023-01-31T01:16:28.035Z,26.87
2023-01-31T01:18:55.648Z,23.70
2023-01-31T01:21:29.879Z,25.95
2023-01-31T01:24:02.138Z,25.90
2023-01-31T01:26:32.851Z,22.45
2023-01-31T01:29:02.161Z,23.70
2023-01-31T01:31:31.431Z,24.15
2023-01-31T01:34:12.867Z,25.62
2023-01-31T01:36:40.504Z,25.43
2023-01-31T01:39:11.576Z,24.75
2023-01-31T01:41:40.787Z,20.97
2023-01-31T01:44:50.036Z,24.98
2023-01-31T01:47:44.144Z,23.32
2023-01-31T01:50:29.175Z,28.05
2023-01-31T01:53:01.652Z,25.17
2023-01-31T01:55:42.560Z,22.95
2023-01-31T01:58:14.845Z,25.15
2023-01-31T02:00:44.716Z,22.93
2023-01-31T02:03:12.746Z,24.85
2023-01-31T02:05:51.049Z,23.35
2023-01-31T02:08:22.558Z,23.73
2023-01-31T02:11:18.632Z,22.32
2023-01-31T02:13:49.413Z,23.85
2023-01-31T02:16:17.328Z,23.42
2023-01-31T02:18:47.712Z,22.05
2023-01-31T02:21:41.931Z,23.62
2023-01-31T02:27:39.885Z,23.60
2023-01-31T02:30:33.861Z,22.95
2023-01-31T02:33:33.053Z,19.98
2023-01-31T02:36:41.818Z,22.27
2023-01-31T02:39:30.801Z,22.67
2023-01-31T02:42:32.525Z,22.48
2023-01-31T02:45:30.884Z,19.73
2023-01-31T02:48:26.611Z,23.32
2023-01-31T02:51:03.356Z,21.20
2023-01-31T02:53:45.234Z,24.23
2023-01-31T02:56:26.060Z,20.92
2023-01-31T02:59:10.286Z,24.85
2023-01-31T03:01:43.470Z,22.37
2023-01-31T03:04:13.793Z,20.37
2023-01-31T03:06:59.819Z,21.65
2023-01-31T03:09:42.796Z,23.42
2023-01-31T03:12:18.202Z,22.05
2023-01-31T03:15:13.221Z,22.95
2023-01-31T03:18:10.563Z,27.75
2023-01-31T03:20:43.717Z,27.95
2023-01-31T03:23:16.184Z,25.32
2023-01-31T03:25:47.229Z,23.95
2023-01-31T03:28:20.354Z,23.62
2023-01-31T03:30:53.367Z,25.95
2023-01-31T03:33:29.388Z,25.88
2023-01-31T03:36:17.827Z,24.98
2023-01-31T03:38:58.588Z,29.95
2023-01-31T03:41:53.473Z,29.90
2023-01-31T03:44:55.865Z,58.40
2023-01-31T03:47:34.807Z,40.95
2023-01-31T03:50:28.869Z,27.95
2023-01-31T03:53:17.366Z,24.57
2023-01-31T03:56:17.034Z,22.42
2023-01-31T03:58:50.463Z,24.20
2023-01-31T04:01:21.242Z,23.07
2023-01-31T04:03:56.371Z,35.45
2023-01-31T04:06:24.176Z,32.65
2023-01-31T04:08:51.964Z,27.65
2023-01-31T04:11:23.603Z,29.87
2023-01-31T04:13:51.205Z,47.55
2023-01-31T04:16:18.901Z,68.05
2023-01-31T04:18:46.306Z,55.43
2023-01-31T04:21:14.838Z,35.90
2023-01-31T04:23:42.847Z,38.20
2023-01-31T04:26:10.395Z,29.70
2023-01-31T04:28:38.302Z,30.68
2023-01-31T04:31:05.926Z,27.73
2023-01-31T04:33:33.459Z,27.52
2023-01-31T04:36:01.498Z,23.30
2023-01-31T04:38:29.165Z,26.12
2023-01-31T04:40:56.564Z,28.47
2023-01-31T04:43:24.410Z,25.23
2023-01-31T04:45:52.095Z,24.75
2023-01-31T04:48:19.503Z,32.03
2023-01-31T04:50:47.017Z,55.17
2023-01-31T04:53:15.077Z,63.50
2023-01-31T04:55:42.400Z,51.05
2023-01-31T04:58:10.023Z,38.42
2023-01-31T05:00:37.334Z,33.25
2023-01-31T05:03:04.801Z,33.60
2023-01-31T05:05:35.964Z,28.05
2023-01-31T05:08:03.216Z,27.05
2023-01-31T05:10:31.569Z,26.17
2023-01-31T05:12:59.231Z,38.63
2023-01-31T05:15:26.921Z,59.80
2023-01-31T05:18:04.721Z,35.15
2023-01-31T05:20:37.833Z,29.40
2023-01-31T05:23:05.314Z,48.17
2023-01-31T05:25:34.740Z,46.88
2023-01-31T05:28:03.247Z,44.20
2023-01-31T05:30:31.499Z,32.28
2023-01-31T05:32:59.716Z,29.10
2023-01-31T05:35:27.496Z,30.62
2023-01-31T05:37:55.643Z,30.35
2023-01-31T05:40:23.788Z,27.77
2023-01-31T05:43:02.289Z,29.85
2023-01-31T05:45:31.422Z,26.37
2023-01-31T05:47:59.296Z,29.92
2023-01-31T05:50:26.974Z,27.27
2023-01-31T05:52:59.193Z,33.92
2023-01-31T05:55:27.716Z,31.75
2023-01-31T05:57:56.010Z,35.10
2023-01-31T06:00:24.482Z,34.40
2023-01-31T06:02:52.078Z,32.83
2023-01-31T06:05:19.910Z,29.23
2023-01-31T06:07:47.661Z,23.27
2023-01-31T06:10:15.292Z,23.60
2023-01-31T06:12:42.937Z,26.35
2023-01-31T06:15:11.476Z,30.25
2023-01-31T06:17:38.932Z,25.85
2023-01-31T06:20:07.140Z,24.75
2023-01-31T06:22:34.580Z,25.48
2023-01-31T06:25:02.212Z,26.02
2023-01-31T06:27:33.169Z,30.20
2023-01-31T06:30:01.239Z,32.70
2023-01-31T06:32:28.732Z,31.07
2023-01-31T06:34:56.351Z,32.93
2023-01-31T06:37:23.741Z,32.98
2023-01-31T06:39:51.370Z,36.05
2023-01-31T06:42:19.136Z,32.35
2023-01-31T06:44:46.877Z,28.77
2023-01-31T06:47:14.536Z,31.02
2023-01-31T06:49:41.860Z,30.08
2023-01-31T06:52:09.564Z,32.73
2023-01-31T06:54:37.064Z,35.17
2023-01-31T06:57:04.548Z,34.60
2023-01-31T06:59:32.683Z,35.17
2023-01-31T07:02:00.223Z,26.62
2023-01-31T07:04:27.660Z,28.42
2023-01-31T07:06:55.223Z,28.17
2023-01-31T07:09:23.169Z,30.65
2023-01-31T07:11:50.600Z,34.30
2023-01-31T07:14:17.974Z,34.33
2023-01-31T07:16:45.388Z,38.78
2023-01-31T07:19:13.161Z,40.17
2023-01-31T07:21:41.692Z,43.13
2023-01-31T07:24:09.543Z,39.58
2023-01-31T07:26:37.144Z,33.92
2023-01-31T07:29:04.395Z,30.20
2023-01-31T07:31:32.475Z,27.90
2023-01-31T07:34:00.515Z,27.73
2023-01-31T07:36:28.334Z,30.10
2023-01-31T07:38:57.814Z,30.70
2023-01-31T07:41:26.232Z,33.15
2023-01-31T07:43:53.723Z,33.10
2023-01-31T07:46:21.279Z,32.58
2023-01-31T07:48:48.736Z,34.38
2023-01-31T07:51:16.382Z,29.20
2023-01-31T07:53:43.824Z,30.57
